Time;durP1;ratioP1;P1;durP2;ratioP2;P2;SDS_P1;SDS_P2;PMS_P1;PMS_P2;Temp;Humidity;BMP_temperature;BMP_pressure;BME280_temperature;BME280_humidity;BME280_pressure;Samples;Min_cycle;Max_cycle;Signal;HPM_P1;HPM_P2
2022/05/02 00:01:46;;;;;;;6.88;5.40;;;6.50;99.90;;;;;;5034358;28;20040;-82
2022/05/02 00:04:11;;;;;;;8.57;5.53;;;6.60;99.90;;;;;;5042895;28;20399;-83
2022/05/02 00:06:37;;;;;;;8.00;5.88;;;6.50;99.90;;;;;;5048025;28;20045;-83
2022/05/02 00:09:03;;;;;;;6.53;5.10;;;6.50;99.90;;;;;;5024520;28;20052;-83
2022/05/02 00:11:28;;;;;;;6.03;5.22;;;6.50;99.90;;;;;;5037947;28;20044;-83
2022/05/02 00:13:54;;;;;;;7.18;5.13;;;6.50;99.90;;;;;;5040190;28;20038;-83
2022/05/02 00:16:20;;;;;;;8.30;5.68;;;6.50;99.90;;;;;;5036058;28;20037;-83
2022/05/02 00:18:45;;;;;;;5.70;4.55;;;6.50;99.90;;;;;;5050275;28;20040;-83
2022/05/02 00:21:11;;;;;;;8.00;5.10;;;6.50;99.90;;;;;;5046824;28;20043;-82
2022/05/02 00:23:37;;;;;;;6.38;5.20;;;6.50;99.90;;;;;;5030348;28;20041;-82
2022/05/02 00:26:02;;;;;;;5.88;4.60;;;6.40;99.90;;;;;;5031278;28;20132;-83
2022/05/02 00:28:28;;;;;;;7.13;4.93;;;6.30;99.90;;;;;;5030621;28;20054;-83
2022/05/02 00:30:53;;;;;;;6.57;4.68;;;6.30;99.90;;;;;;5018274;28;20502;-83
2022/05/02 00:33:20;;;;;;;8.93;5.20;;;6.20;99.90;;;;;;5044135;28;20073;-83
2022/05/02 00:35:46;;;;;;;6.93;5.53;;;6.00;99.90;;;;;;5048540;28;20087;-82
2022/05/02 00:38:11;;;;;;;5.93;4.93;;;6.00;99.90;;;;;;5033096;28;20076;-82
2022/05/02 00:40:37;;;;;;;7.82;5.05;;;6.00;99.90;;;;;;5049961;28;20081;-83
2022/05/02 00:43:02;;;;;;;7.13;4.55;;;6.00;99.90;;;;;;5048260;28;20131;-83
2022/05/02 00:45:28;;;;;;;6.15;4.50;;;6.00;99.90;;;;;;5038422;28;20390;-83
2022/05/02 00:47:55;;;;;;;7.00;4.95;;;6.00;99.90;;;;;;5034666;28;20042;-83
2022/05/02 00:50:44;;;;;;;4.78;3.67;;;6.00;99.90;;;;;;5029912;28;20462;-83
2022/05/02 00:53:19;;;;;;;3.22;2.60;;;6.00;99.90;;;;;;5036287;28;20072;-83
2022/05/02 00:55:45;;;;;;;3.88;2.70;;;6.00;99.90;;;;;;5023516;28;20038;-82
2022/05/02 00:58:14;;;;;;;4.75;3.95;;;5.90;99.90;;;;;;5029902;28;20041;-83
2022/05/02 01:00:40;;;;;;;5.43;4.00;;;5.90;99.90;;;;;;5033754;28;20052;-83
2022/05/02 01:03:07;;;;;;;3.95;3.50;;;5.90;99.90;;;;;;5066081;28;20053;-83
2022/05/02 01:07:08;;;;;;;4.28;3.78;;;5.80;99.90;;;;;;5048894;28;20491;-82
2022/05/02 01:08:29;;;;;;;4.10;3.50;;;5.60;99.90;;;;;;5043885;28;20056;-83
2022/05/02 01:10:56;;;;;;;8.27;5.70;;;5.40;99.90;;;;;;5034556;28;20072;-83
2022/05/02 01:13:51;;;;;;;5.72;5.10;;;5.30;99.90;;;;;;5031799;28;20044;-83
2022/05/02 01:16:25;;;;;;;7.70;5.25;;;5.30;99.90;;;;;;5015408;28;20081;-82
2022/05/02 01:18:52;;;;;;;7.88;5.57;;;5.30;99.90;;;;;;5026456;28;20034;-81
2022/05/02 01:21:23;;;;;;;7.00;5.32;;;5.40;99.90;;;;;;5028853;28;20467;-83
2022/05/02 01:23:54;;;;;;;8.40;6.30;;;5.40;99.90;;;;;;5032201;28;20033;-83
2022/05/02 01:26:20;;;;;;;8.18;5.70;;;5.40;99.90;;;;;;5039328;28;20107;-83
2022/05/02 01:28:48;;;;;;;9.63;5.50;;;5.50;99.90;;;;;;5029815;28;20042;-83
2022/05/02 01:31:15;;;;;;;6.32;5.35;;;5.50;99.90;;;;;;5032829;28;20049;-82
2022/05/02 01:33:42;;;;;;;6.57;5.32;;;5.50;99.90;;;;;;5037788;28;20042;-82
2022/05/02 01:36:08;;;;;;;7.45;5.18;;;5.40;99.90;;;;;;5032737;28;20545;-83
2022/05/02 01:38:35;;;;;;;5.72;5.13;;;5.30;99.90;;;;;;5031068;28;20056;-83
2022/05/02 01:41:01;;;;;;;7.72;5.45;;;5.30;99.90;;;;;;5037172;28;20484;-83
2022/05/02 01:43:27;;;;;;;7.07;4.82;;;5.20;99.90;;;;;;5029404;28;20072;-82
2022/05/02 01:45:54;;;;;;;5.57;4.82;;;5.20;99.90;;;;;;5044746;28;20119;-83
2022/05/02 01:48:19;;;;;;;7.82;5.50;;;5.10;99.90;;;;;;5030417;28;20037;-83
2022/05/02 01:50:45;;;;;;;6.63;5.85;;;5.10;99.90;;;;;;5031726;28;20041;-83
2022/05/02 01:53:11;;;;;;;8.30;6.80;;;5.20;99.90;;;;;;5029414;28;20049;-83
2022/05/02 01:55:36;;;;;;;9.23;6.78;;;5.20;99.90;;;;;;5032930;28;20458;-83
2022/05/02 01:58:02;;;;;;;9.02;6.45;;;5.20;99.90;;;;;;5050630;28;20041;-83
2022/05/02 02:00:27;;;;;;;9.40;6.45;;;5.20;99.90;;;;;;5040774;28;20092;-83
2022/05/02 02:02:53;;;;;;;8.38;6.50;;;5.20;99.90;;;;;;5038405;28;20044;-83
2022/05/02 02:08:03;;;;;;;;;;;5.30;99.90;;;;;;5033538;28;20077;-83
2022/05/02 02:10:29;;;;;;;8.20;6.47;;;5.30;99.90;;;;;;5032621;28;19963;-83
2022/05/02 02:12:54;;;;;;;9.32;6.78;;;5.30;99.90;;;;;;5033188;28;20067;-82
2022/05/02 02:15:20;;;;;;;8.73;6.53;;;5.20;99.90;;;;;;5034393;28;20278;-83
2022/05/02 02:17:45;;;;;;;9.13;7.00;;;5.20;99.90;;;;;;5040717;28;20033;-83
2022/05/02 02:20:12;;;;;;;7.38;6.22;;;5.10;99.90;;;;;;5048086;28;20084;-83
2022/05/02 02:22:39;;;;;;;7.20;5.97;;;5.00;99.90;;;;;;5036867;28;20091;-83
2022/05/02 02:25:06;;;;;;;7.63;6.07;;;5.00;99.90;;;;;;5049400;28;20521;-83
2022/05/02 02:27:32;;;;;;;10.25;6.95;;;4.90;99.90;;;;;;5052963;28;20044;-83
2022/05/02 02:29:59;;;;;;;9.07;7.13;;;4.80;99.90;;;;;;5053682;28;20064;-83
2022/05/02 02:32:25;;;;;;;11.68;7.35;;;4.80;99.90;;;;;;5048154;28;20056;-83
2022/05/02 02:34:50;;;;;;;7.78;6.75;;;4.90;99.90;;;;;;5045044;28;20045;-83
2022/05/02 02:37:16;;;;;;;8.73;6.95;;;4.90;99.90;;;;;;5041216;28;20414;-82
2022/05/02 02:39:43;;;;;;;8.48;6.80;;;4.90;99.90;;;;;;5032961;28;20045;-83
2022/05/02 02:42:09;;;;;;;7.72;6.50;;;4.90;99.90;;;;;;5025930;28;20042;-82
2022/05/02 02:44:34;;;;;;;7.82;6.05;;;4.90;99.90;;;;;;5029205;28;20506;-82
2022/05/02 02:47:00;;;;;;;6.60;5.90;;;4.90;99.90;;;;;;5034931;28;20168;-82
2022/05/02 02:49:26;;;;;;;7.15;5.50;;;4.90;99.90;;;;;;5041617;28;20056;-82
2022/05/02 02:51:51;;;;;;;7.03;5.95;;;4.80;99.90;;;;;;5047847;28;20560;-83
2022/05/02 02:54:17;;;;;;;7.25;5.75;;;4.70;99.90;;;;;;5035912;28;20510;-83
2022/05/02 02:56:43;;;;;;;8.43;6.07;;;4.70;99.90;;;;;;5032911;28;20402;-83
2022/05/02 02:59:08;;;;;;;7.63;6.10;;;4.70;99.90;;;;;;5016997;28;20480;-83
2022/05/02 03:01:34;;;;;;;8.27;6.18;;;4.60;99.90;;;;;;5046895;28;20048;-82
2022/05/02 03:06:01;;;;;;;10.00;6.60;;;4.60;99.90;;;;;;5039513;28;20570;-83
2022/05/02 03:06:46;;;;;;;9.18;6.47;;;4.60;99.90;;;;;;5031696;28;20073;-83
2022/05/02 03:09:11;;;;;;;7.15;5.88;;;4.50;99.90;;;;;;5046172;28;20083;-83
2022/05/02 03:11:37;;;;;;;7.88;6.40;;;4.50;99.90;;;;;;5043716;28;20045;-83
2022/05/02 03:14:03;;;;;;;7.20;6.13;;;4.50;99.90;;;;;;5040202;28;20499;-83
2022/05/02 03:16:28;;;;;;;7.45;5.90;;;4.50;99.90;;;;;;5029406;28;20042;-83
2022/05/02 03:18:54;;;;;;;7.00;6.20;;;4.50;99.90;;;;;;5035252;28;20067;-83
2022/05/02 03:21:19;;;;;;;7.72;6.47;;;4.50;99.90;;;;;;5036253;28;20044;-83
2022/05/02 03:23:45;;;;;;;6.63;5.80;;;4.50;99.90;;;;;;5039336;28;20099;-84
2022/05/02 03:26:10;;;;;;;7.43;5.43;;;4.50;99.90;;;;;;5032863;28;20517;-83
2022/05/02 03:28:36;;;;;;;6.57;5.50;;;4.50;99.90;;;;;;5033354;28;20093;-83
2022/05/02 03:31:01;;;;;;;5.22;4.40;;;4.40;99.90;;;;;;5045678;28;20495;-83
2022/05/02 03:33:27;;;;;;;5.30;4.60;;;4.50;99.90;;;;;;5031206;28;20034;-83
2022/05/02 03:35:52;;;;;;;8.88;5.50;;;4.40;99.90;;;;;;5038035;28;20037;-83
2022/05/02 03:38:18;;;;;;;9.27;5.80;;;4.40;99.90;;;;;;5051922;28;20498;-83
2022/05/02 03:40:43;;;;;;;14.18;8.00;;;4.30;99.90;;;;;;5051599;28;20048;-83
2022/05/02 03:43:09;;;;;;;12.93;8.65;;;4.30;99.90;;;;;;5036884;28;20049;-84
2022/05/02 03:45:36;;;;;;;7.60;6.28;;;4.30;99.90;;;;;;5044987;28;20038;-84
2022/05/02 03:48:01;;;;;;;7.57;6.57;;;4.30;99.90;;;;;;5032367;28;20052;-84
2022/05/02 03:50:27;;;;;;;6.93;5.78;;;4.10;99.90;;;;;;5030755;28;20407;-84
2022/05/02 03:52:52;;;;;;;7.05;5.75;;;4.10;99.90;;;;;;5033803;28;20452;-84
2022/05/02 03:55:18;;;;;;;7.57;6.07;;;4.10;99.90;;;;;;5022765;28;20046;-84
2022/05/02 03:57:44;;;;;;;6.35;5.47;;;4.10;99.90;;;;;;5059781;28;20051;-84
2022/05/02 04:00:10;;;;;;;6.97;5.43;;;4.10;99.90;;;;;;5050347;28;20056;-84
2022/05/02 04:02:36;;;;;;;8.98;5.80;;;4.20;99.90;;;;;;5048930;28;20033;-83
2022/05/02 04:05:01;;;;;;;7.43;6.18;;;4.10;99.90;;;;;;5050458;28;20440;-83
2022/05/02 04:07:27;;;;;;;8.77;5.57;;;4.10;99.90;;;;;;5039325;28;20569;-83
2022/05/02 04:09:52;;;;;;;6.35;5.60;;;4.10;99.90;;;;;;5031838;28;20044;-84
2022/05/02 04:12:18;;;;;;;57.42;7.18;;;4.20;99.90;;;;;;5032128;28;20117;-84
2022/05/02 04:14:43;;;;;;;40.75;7.38;;;4.30;99.90;;;;;;5029459;28;20068;-83
2022/05/02 04:17:10;;;;;;;7.50;5.65;;;4.10;99.90;;;;;;5036176;28;20480;-83
2022/05/02 04:19:35;;;;;;;8.68;6.10;;;3.90;99.90;;;;;;5045858;28;20470;-83
2022/05/02 04:22:01;;;;;;;9.38;6.40;;;3.90;99.90;;;;;;5048378;28;20093;-83
2022/05/02 04:24:28;;;;;;;8.48;6.40;;;3.80;99.90;;;;;;5010832;28;20032;-83
2022/05/02 04:26:54;;;;;;;7.68;5.78;;;3.70;99.90;;;;;;5045178;28;20037;-83
2022/05/02 04:29:19;;;;;;;10.45;5.85;;;3.70;99.90;;;;;;5031138;28;20103;-83
2022/05/02 04:31:45;;;;;;;9.88;7.13;;;3.60;99.90;;;;;;5038691;28;20051;-83
2022/05/02 04:34:10;;;;;;;9.30;6.20;;;3.60;99.90;;;;;;5031999;28;20527;-83
2022/05/02 04:36:36;;;;;;;7.53;5.90;;;3.70;99.90;;;;;;5050025;28;20044;-83
2022/05/02 04:39:02;;;;;;;5.80;4.80;;;3.70;99.90;;;;;;5043209;28;20045;-83
2022/05/02 04:41:28;;;;;;;5.22;4.55;;;3.80;99.90;;;;;;5044812;28;20037;-83
2022/05/02 04:43:54;;;;;;;7.25;4.55;;;4.10;99.90;;;;;;5032123;28;20087;-83
2022/05/02 04:46:20;;;;;;;5.50;4.32;;;3.90;99.90;;;;;;5040114;28;20044;-83
2022/05/02 04:48:45;;;;;;;3.85;3.45;;;3.90;99.90;;;;;;5030078;28;20511;-83
2022/05/02 04:51:11;;;;;;;4.45;3.22;;;3.90;99.90;;;;;;5032402;28;20078;-83
2022/05/02 04:53:37;;;;;;;4.85;3.15;;;3.90;99.90;;;;;;5048884;28;20038;-83
2022/05/02 04:56:03;;;;;;;4.00;3.50;;;3.90;99.90;;;;;;5031694;28;20117;-83
2022/05/02 04:58:28;;;;;;;5.25;3.78;;;3.90;99.90;;;;;;5043494;28;20123;-83
2022/05/02 05:00:54;;;;;;;4.30;3.90;;;3.80;99.90;;;;;;5042379;28;20060;-84
2022/05/02 05:03:21;;;;;;;4.95;4.20;;;4.10;99.90;;;;;;5023762;28;20050;-84
2022/05/02 05:05:47;;;;;;;5.72;4.78;;;3.90;99.90;;;;;;5031263;28;20418;-84
2022/05/02 05:08:14;;;;;;;7.10;5.07;;;3.90;99.90;;;;;;5029143;28;20094;-84
2022/05/02 05:11:26;;;;;;;7.38;5.70;;;4.00;99.90;;;;;;5009186;28;20110;-84
2022/05/02 05:17:24;;;;;;;7.93;5.78;;;4.20;99.90;;;;;;5038800;28;20049;-84
2022/05/02 05:20:05;;;;;;;8.18;6.13;;;4.40;99.90;;;;;;5043670;28;20052;-84
2022/05/02 05:22:55;;;;;;;8.70;6.30;;;4.40;99.90;;;;;;5028335;28;20038;-84
2022/05/02 05:25:38;;;;;;;9.70;6.78;;;4.50;99.90;;;;;;5039531;28;21647;-84
2022/05/02 05:28:15;;;;;;;8.97;7.40;;;4.60;99.90;;;;;;5030889;28;20029;-83
2022/05/02 05:30:44;;;;;;;10.20;7.10;;;4.70;99.90;;;;;;5036433;28;20120;-84
2022/05/02 05:33:51;;;;;;;9.48;7.43;;;4.90;99.90;;;;;;5040047;28;20048;-83
2022/05/02 05:36:27;;;;;;;8.98;6.88;;;5.00;99.90;;;;;;5026156;28;20522;-84
2022/05/02 05:39:06;;;;;;;11.80;8.02;;;5.20;99.90;;;;;;5019499;28;20048;-84
2022/05/02 05:42:09;;;;;;;10.70;7.97;;;5.40;99.90;;;;;;5035183;28;20373;-83
2022/05/02 05:44:53;;;;;;;10.70;8.73;;;5.50;99.90;;;;;;5034157;28;20037;-84
2022/05/02 05:47:36;;;;;;;14.98;8.50;;;5.70;99.90;;;;;;5033724;28;20121;-83
2022/05/02 05:50:22;;;;;;;13.25;9.32;;;5.80;99.90;;;;;;5039664;28;20048;-83
2022/05/02 05:53:08;;;;;;;11.68;8.98;;;6.00;99.90;;;;;;5034551;28;20091;-83
2022/05/02 05:55:54;;;;;;;13.95;9.77;;;6.20;99.90;;;;;;5035908;28;20052;-83
2022/05/02 05:58:45;;;;;;;13.98;9.68;;;6.40;99.90;;;;;;5048996;28;20498;-83
2022/05/02 06:01:14;;;;;;;14.65;10.15;;;6.60;99.90;;;;;;5039724;28;20050;-83
2022/05/02 06:04:04;;;;;;;13.85;10.93;;;6.80;99.90;;;;;;5032492;28;20531;-83
2022/05/02 06:06:30;;;;;;;14.63;11.70;;;7.20;99.90;;;;;;5029401;28;20115;-82
2022/05/02 06:09:00;;;;;;;13.98;11.30;;;7.30;99.90;;;;;;5034697;28;20048;-82
2022/05/02 06:11:27;;;;;;;14.00;11.43;;;7.50;99.90;;;;;;5033009;28;20042;-82
2022/05/02 06:13:55;;;;;;;17.10;11.60;;;7.60;99.90;;;;;;5032437;28;20047;-82
2022/05/02 06:19:17;;;;;;;17.40;12.20;;;8.00;99.90;;;;;;5034528;28;20049;-82
2022/05/02 06:21:44;;;;;;;16.25;12.50;;;8.20;99.90;;;;;;5032780;28;20522;-82
2022/05/02 06:24:11;;;;;;;16.67;12.55;;;8.30;99.90;;;;;;5033660;28;20053;-81
2022/05/02 06:26:43;;;;;;;17.45;12.40;;;8.50;99.90;;;;;;5034039;28;20117;-82
2022/05/02 06:29:10;;;;;;;20.40;12.18;;;8.70;99.90;;;;;;5034045;28;20089;-81
2022/05/02 06:31:40;;;;;;;16.23;12.48;;;8.90;99.90;;;;;;5034862;28;20543;-81
2022/05/02 06:34:06;;;;;;;18.80;13.68;;;9.00;99.90;;;;;;5036397;28;20513;-80
2022/05/02 06:37:07;;;;;;;17.60;13.43;;;9.20;99.90;;;;;;5035492;28;20049;-81
2022/05/02 06:39:54;;;;;;;17.95;13.25;;;9.30;99.90;;;;;;5019219;28;20466;-81
2022/05/02 06:42:39;;;;;;;18.15;12.95;;;9.40;99.90;;;;;;5022824;28;20520;-81
2022/05/02 06:45:19;;;;;;;18.17;13.48;;;9.50;99.90;;;;;;5037545;28;20536;-81
2022/05/02 06:48:14;;;;;;;17.38;12.35;;;9.70;99.90;;;;;;5039020;28;20048;-81
2022/05/02 06:50:40;;;;;;;;;;;9.80;99.90;;;;;;5032181;28;20049;-81
2022/05/02 06:53:34;;;;;;;15.32;11.05;;;9.90;99.90;;;;;;5041935;28;20210;-81
2022/05/02 06:56:18;;;;;;;15.80;10.20;;;10.00;99.90;;;;;;5020043;28;20098;-81
2022/05/02 06:59:06;;;;;;;12.18;9.98;;;10.20;99.90;;;;;;5038944;28;20047;-81
2022/05/02 07:01:44;;;;;;;14.82;9.70;;;10.30;99.90;;;;;;5038646;28;20052;-81
2022/05/02 07:04:18;;;;;;;14.20;10.90;;;10.40;99.90;;;;;;5035826;28;20517;-81
2022/05/02 07:07:16;;;;;;;14.85;10.50;;;10.50;99.90;;;;;;5036115;28;20614;-81
2022/05/02 07:10:03;;;;;;;13.85;10.13;;;10.70;99.90;;;;;;5032572;28;20077;-81
2022/05/02 07:12:31;;;;;;;13.18;10.18;;;10.80;99.90;;;;;;5039762;28;20049;-81
2022/05/02 07:15:13;;;;;;;12.20;10.18;;;10.90;99.90;;;;;;5039213;28;20037;-81
2022/05/02 07:17:52;;;;;;;14.05;10.20;;;11.00;99.90;;;;;;5035723;28;20042;-82
2022/05/02 07:20:42;;;;;;;13.70;9.98;;;11.20;99.90;;;;;;5035567;28;20395;-81
2022/05/02 07:23:58;;;;;;;13.70;9.70;;;11.30;99.90;;;;;;5037031;28;20060;-82
2022/05/02 07:26:27;;;;;;;11.35;9.40;;;11.50;99.90;;;;;;5035265;28;20033;-82
2022/05/02 07:28:59;;;;;;;12.73;9.13;;;11.60;99.90;;;;;;5039202;28;20503;-81
2022/05/02 07:31:25;;;;;;;13.07;9.80;;;11.70;99.90;;;;;;5032854;28;20048;-81
2022/05/02 07:33:52;;;;;;;13.43;10.20;;;11.80;99.90;;;;;;5048422;28;20037;-81
2022/05/02 07:36:20;;;;;;;12.60;9.60;;;11.90;99.90;;;;;;5045881;28;20041;-81
2022/05/02 07:39:01;;;;;;;11.80;8.95;;;12.00;99.90;;;;;;5037032;28;20046;-81
2022/05/02 07:41:27;;;;;;;14.55;9.15;;;12.10;99.90;;;;;;5034600;28;20099;-81
2022/05/02 07:44:05;;;;;;;12.30;9.38;;;12.20;99.90;;;;;;5036787;28;20079;-81
2022/05/02 07:46:59;;;;;;;11.82;9.00;;;12.30;99.90;;;;;;5038988;28;20095;-81
2022/05/02 07:49:27;;;;;;;11.75;9.00;;;12.40;99.90;;;;;;5036445;28;20093;-81
2022/05/02 07:51:54;;;;;;;12.82;9.48;;;12.50;99.90;;;;;;5037033;28;20069;-80
2022/05/02 07:54:23;;;;;;;11.75;9.32;;;12.60;99.90;;;;;;5036846;28;20048;-81
2022/05/02 07:56:50;;;;;;;13.98;9.32;;;12.70;99.90;;;;;;5043927;28;20038;-81
2022/05/02 07:59:19;;;;;;;13.57;9.35;;;12.70;99.90;;;;;;5036660;28;20421;-81
2022/05/02 08:01:45;;;;;;;14.05;9.18;;;12.80;99.90;;;;;;5034758;28;20067;-81
2022/05/02 08:04:13;;;;;;;10.75;8.05;;;12.90;99.90;;;;;;5037418;28;20065;-80
2022/05/02 08:07:00;;;;;;;11.48;8.77;;;13.00;99.90;;;;;;5034251;28;20064;-80
2022/05/02 08:10:04;;;;;;;13.50;8.50;;;13.20;99.90;;;;;;5038403;28;20075;-79
2022/05/02 08:12:40;;;;;;;13.45;8.52;;;13.30;99.90;;;;;;5037062;28;20041;-80
2022/05/02 08:15:30;;;;;;;11.73;8.95;;;13.40;99.90;;;;;;5027158;28;20049;-80
2022/05/02 08:18:10;;;;;;;11.02;8.13;;;13.50;99.90;;;;;;5038169;28;20476;-79
2022/05/02 08:20:56;;;;;;;12.52;8.68;;;13.60;99.90;;;;;;5037601;28;20044;-80
2022/05/02 08:27:15;;;;;;;12.75;8.70;;;13.90;99.90;;;;;;5039704;28;20100;-81
2022/05/02 08:30:02;;;;;;;10.32;7.95;;;14.00;99.90;;;;;;5036428;28;20045;-81
2022/05/02 08:32:34;;;;;;;10.77;8.23;;;14.10;99.90;;;;;;5041914;28;20063;-80
2022/05/02 08:35:07;;;;;;;10.93;8.02;;;14.30;99.90;;;;;;5030487;28;20128;-80
2022/05/02 08:38:02;;;;;;;10.32;8.27;;;14.40;99.90;;;;;;5039341;28;20045;-81
2022/05/02 08:40:27;;;;;;;;;;;14.40;99.90;;;;;;5026643;28;20068;-80
2022/05/02 08:43:12;;;;;;;11.10;7.90;;;14.50;99.90;;;;;;5019659;28;19917;-81
2022/05/02 08:46:06;;;;;;;11.63;7.82;;;14.60;99.90;;;;;;5011523;28;20557;-81
2022/05/02 08:49:35;;;;;;;10.35;7.82;;;14.60;99.90;;;;;;5013499;28;20560;-81
2022/05/02 08:52:22;;;;;;;10.20;7.55;;;14.70;99.90;;;;;;5016035;28;20101;-81
2022/05/02 08:55:32;;;;;;;10.73;7.63;;;14.80;99.90;;;;;;5015691;28;20155;-81
2022/05/02 08:58:03;;;;;;;9.80;7.70;;;14.90;99.90;;;;;;4981527;28;20078;-81
2022/05/02 09:00:38;;;;;;;10.10;7.82;;;14.90;99.90;;;;;;5012646;28;20046;-81
2022/05/02 09:03:03;;;;;;;9.60;7.30;;;14.90;99.90;;;;;;5014352;28;20042;-80
2022/05/02 09:06:01;;;;;;;11.75;7.85;;;15.00;99.90;;;;;;5014821;28;20400;-80
2022/05/02 09:08:39;;;;;;;10.60;8.20;;;15.10;99.90;;;;;;5015755;28;20623;-80
2022/05/02 09:11:48;;;;;;;11.73;7.82;;;15.10;99.90;;;;;;5022889;28;20535;-79
2022/05/02 09:14:31;;;;;;;11.20;7.20;;;15.20;99.90;;;;;;5020951;28;20513;-81
2022/05/02 09:17:15;;;;;;;10.38;7.32;;;15.20;99.90;;;;;;5019046;28;20060;-79
2022/05/02 09:19:53;;;;;;;12.60;7.78;;;15.20;99.90;;;;;;5018065;28;20050;-79
2022/05/02 09:22:57;;;;;;;9.10;7.28;;;15.00;99.90;;;;;;5019828;28;20400;-80
2022/05/02 09:25:35;;;;;;;8.88;7.50;;;15.10;99.90;;;;;;4996742;28;20412;-80
2022/05/02 09:28:32;;;;;;;12.73;8.35;;;15.20;99.90;;;;;;5020103;28;20046;-80
2022/05/02 09:31:22;;;;;;;10.98;8.10;;;15.10;99.90;;;;;;5020583;28;20098;-80
2022/05/02 09:34:19;;;;;;;10.38;8.20;;;15.30;99.90;;;;;;5017066;28;20069;-80
2022/05/02 09:36:59;;;;;;;9.23;7.10;;;15.30;99.90;;;;;;5018322;28;20034;-80
2022/05/02 09:39:42;;;;;;;9.85;7.03;;;15.40;99.90;;;;;;5015735;28;20053;-79
2022/05/02 09:42:29;;;;;;;7.55;6.15;;;15.60;99.90;;;;;;5018781;28;20042;-79
2022/05/02 09:49:33;;;;;;;9.65;6.25;;;15.60;99.90;;;;;;5017269;28;20050;-79
2022/05/02 09:51:23;;;;;;;7.75;6.47;;;15.80;99.90;;;;;;5015709;28;20058;-79
2022/05/02 09:54:07;;;;;;;12.57;7.20;;;16.00;99.90;;;;;;5014971;28;20046;-78
2022/05/02 09:56:45;;;;;;;10.90;7.15;;;16.10;99.90;;;;;;5016730;28;20526;-79
2022/05/02 09:59:26;;;;;;;10.10;6.38;;;16.20;99.90;;;;;;5014993;28;20053;-79
2022/05/02 10:02:09;;;;;;;12.00;6.90;;;16.10;99.90;;;;;;5017609;28;20072;-81
2022/05/02 10:04:53;;;;;;;9.68;6.30;;;16.30;99.90;;;;;;5016011;28;20073;-81
2022/05/02 10:07:23;;;;;;;8.40;5.70;;;16.50;99.90;;;;;;5018424;28;20168;-79
2022/05/02 10:09:49;;;;;;;13.13;6.10;;;16.50;99.90;;;;;;5016267;28;20647;-80
2022/05/02 10:12:26;;;;;;;8.30;6.03;;;16.60;99.90;;;;;;5019487;28;20038;-79
2022/05/02 10:15:13;;;;;;;9.13;6.10;;;16.70;99.90;;;;;;5018846;28;20075;-81
2022/05/02 10:18:02;;;;;;;8.50;5.85;;;16.80;99.90;;;;;;5018545;28;20046;-78
2022/05/02 10:20:48;;;;;;;8.60;6.45;;;16.80;99.90;;;;;;5017026;28;20092;-78
2022/05/02 10:23:22;;;;;;;8.45;5.88;;;16.90;99.90;;;;;;5017747;28;20048;-80
2022/05/02 10:26:11;;;;;;;7.70;6.40;;;16.80;99.90;;;;;;5018180;28;20045;-79
2022/05/02 10:29:09;;;;;;;10.60;5.82;;;16.90;99.90;;;;;;5008775;28;20081;-78
2022/05/02 10:31:38;;;;;;;9.50;6.60;;;17.10;99.90;;;;;;4983968;28;20058;-78
2022/05/02 10:34:04;;;;;;;6.97;6.00;;;17.20;99.90;;;;;;5015928;28;20527;-78
2022/05/02 10:36:37;;;;;;;10.48;6.05;;;17.30;99.90;;;;;;5014074;28;20093;-79
2022/05/02 10:39:19;;;;;;;9.60;6.10;;;17.40;99.90;;;;;;5017129;28;20103;-79
2022/05/02 10:41:57;;;;;;;7.43;6.15;;;17.30;99.00;;;;;;5017564;28;20045;-80
2022/05/02 10:44:28;;;;;;;9.35;6.03;;;17.50;99.50;;;;;;5015817;28;20046;-80
2022/05/02 10:47:02;;;;;;;7.40;5.72;;;17.50;99.80;;;;;;5017977;28;20172;-79
2022/05/02 10:49:53;;;;;;;7.93;6.18;;;17.30;99.80;;;;;;5019558;28;20046;-79
2022/05/02 10:52:54;;;;;;;8.73;5.95;;;16.70;99.70;;;;;;5015192;28;20077;-80
2022/05/02 10:55:31;;;;;;;9.10;6.57;;;16.00;96.50;;;;;;5014033;28;20049;-79
2022/05/02 10:58:10;;;;;;;7.32;6.18;;;16.10;99.30;;;;;;5018320;28;20492;-80
2022/05/02 11:01:07;;;;;;;8.90;5.68;;;16.40;99.10;;;;;;5014247;28;20057;-80
2022/05/02 11:03:46;;;;;;;8.98;6.60;;;16.80;98.80;;;;;;5007010;28;20058;-80
2022/05/02 11:06:54;;;;;;;9.20;6.30;;;17.10;98.30;;;;;;5028100;28;20469;-80
2022/05/02 11:09:40;;;;;;;11.35;6.45;;;16.90;97.60;;;;;;5029161;28;20049;-81
2022/05/02 11:12:11;;;;;;;9.35;5.88;;;16.70;98.40;;;;;;5025120;28;20049;-80
2022/05/02 11:15:05;;;;;;;7.65;5.85;;;16.90;99.10;;;;;;5033422;28;20480;-81
2022/05/02 11:17:39;;;;;;;6.88;6.05;;;17.00;98.70;;;;;;5031067;28;20041;-81
2022/05/02 11:23:30;;;;;;;7.47;6.50;;;17.10;98.00;;;;;;5031158;28;20491;-81
2022/05/02 11:26:09;;;;;;;10.85;6.97;;;17.20;97.80;;;;;;5025870;28;20042;-81
2022/05/02 11:28:53;;;;;;;10.48;6.85;;;17.60;97.40;;;;;;5032453;28;20056;-81
2022/05/02 11:31:29;;;;;;;11.40;7.53;;;17.60;96.90;;;;;;5026162;28;20037;-80
2022/05/02 11:34:10;;;;;;;13.93;7.35;;;17.60;96.80;;;;;;5017234;28;20116;-82
2022/05/02 11:36:44;;;;;;;13.60;7.50;;;17.60;96.10;;;;;;5028983;28;20162;-80
2022/05/02 11:39:19;;;;;;;10.32;6.85;;;17.90;97.00;;;;;;5028919;28;20049;-82
2022/05/02 11:41:47;;;;;;;13.43;6.25;;;17.70;95.70;;;;;;5027365;28;20044;-81
2022/05/02 11:44:13;;;;;;;12.98;7.00;;;17.30;95.90;;;;;;5020572;28;20052;-83
2022/05/02 11:47:13;;;;;;;8.45;6.15;;;16.80;96.30;;;;;;5028462;28;20683;-82
2022/05/02 11:50:03;;;;;;;9.98;6.57;;;16.50;96.60;;;;;;5025546;28;20060;-82
2022/05/02 11:52:31;;;;;;;10.45;6.85;;;16.50;97.60;;;;;;5025612;28;20655;-82
2022/05/02 11:55:06;;;;;;;7.90;6.43;;;16.70;97.80;;;;;;5068058;28;20835;-80
2022/05/02 11:57:50;;;;;;;9.10;6.78;;;17.00;97.60;;;;;;5081181;28;20036;-83
2022/05/02 12:00:17;;;;;;;8.85;6.32;;;17.60;97.70;;;;;;5074681;28;20592;-83
2022/05/02 12:03:22;;;;;;;7.80;5.75;;;17.90;97.20;;;;;;5056278;28;20036;-84
2022/05/02 12:05:52;;;;;;;7.53;5.78;;;17.40;94.20;;;;;;5004612;28;20769;-84
2022/05/02 12:08:35;;;;;;;7.57;5.40;;;17.40;95.90;;;;;;5052744;28;20056;-85
2022/05/02 12:11:07;;;;;;;9.68;6.25;;;17.30;95.10;;;;;;5042336;28;20398;-84
2022/05/02 12:13:45;;;;;;;6.40;5.20;;;17.20;95.20;;;;;;5054186;28;20531;-84
2022/05/02 12:16:14;;;;;;;7.57;5.25;;;17.00;95.40;;;;;;5048670;28;20045;-84
2022/05/02 12:18:47;;;;;;;7.20;5.25;;;17.40;95.90;;;;;;5055423;28;20037;-84
2022/05/02 12:21:36;;;;;;;9.35;5.82;;;18.00;95.20;;;;;;5057071;28;20484;-84
2022/05/02 12:24:03;;;;;;;8.10;6.05;;;18.10;94.20;;;;;;5058864;28;20132;-84
2022/05/02 12:26:31;;;;;;;8.38;5.68;;;18.50;94.40;;;;;;5055301;28;20063;-84
2022/05/02 12:29:00;;;;;;;9.13;5.80;;;19.10;94.70;;;;;;5054329;28;20061;-84
2022/05/02 12:31:30;;;;;;;6.45;5.60;;;19.50;94.40;;;;;;5044843;28;20506;-83
2022/05/02 12:34:03;;;;;;;7.30;5.25;;;19.30;92.00;;;;;;5043375;28;20044;-85
2022/05/02 12:36:47;;;;;;;7.28;4.78;;;19.60;91.30;;;;;;5047291;28;20036;-85
2022/05/02 12:39:15;;;;;;;5.85;4.03;;;19.30;91.20;;;;;;5046692;28;20036;-86
2022/05/02 12:41:58;;;;;;;6.90;4.55;;;18.90;91.10;;;;;;5044972;28;20123;-84
2022/05/02 12:44:41;;;;;;;7.18;4.93;;;19.20;91.00;;;;;;5032024;28;20044;-85
2022/05/02 12:47:19;;;;;;;6.40;4.57;;;19.30;90.90;;;;;;5035971;28;20049;-85
2022/05/02 12:50:07;;;;;;;7.70;4.38;;;19.50;90.80;;;;;;5072461;28;20529;-83
2022/05/02 12:52:35;;;;;;;7.55;4.75;;;19.10;86.00;;;;;;5045784;28;20040;-85
2022/05/02 12:55:00;;;;;;;5.20;4.45;;;19.00;90.00;;;;;;5063725;28;20422;-86
2022/05/02 13:00:46;;;;;;;8.60;4.90;;;19.10;91.20;;;;;;5042616;28;20045;-86
2022/05/02 13:03:18;;;;;;;5.82;4.72;;;19.10;91.10;;;;;;5063402;28;20229;-86
2022/05/02 13:05:46;;;;;;;7.15;5.15;;;19.20;92.30;;;;;;5039264;28;20136;-88
2022/05/02 13:08:19;;;;;;;6.53;4.65;;;19.10;92.40;;;;;;5035779;28;20502;-86
2022/05/02 13:10:46;;;;;;;6.65;5.13;;;19.10;92.50;;;;;;5055407;28;20040;-88
2022/05/02 13:13:14;;;;;;;9.25;5.20;;;18.90;92.40;;;;;;5038459;28;20040;-87
2022/05/02 13:15:42;;;;;;;6.85;5.40;;;19.40;92.90;;;;;;5035579;28;20391;-85
2022/05/02 13:18:12;;;;;;;7.28;4.85;;;19.40;92.70;;;;;;5051417;28;20037;-85
2022/05/02 13:20:39;;;;;;;7.07;4.80;;;19.70;92.50;;;;;;5051546;28;20498;-84
2022/05/02 13:23:13;;;;;;;9.02;5.20;;;19.50;92.00;;;;;;5034861;28;20055;-85
2022/05/02 13:26:16;;;;;;;6.50;4.65;;;19.70;92.10;;;;;;5034766;28;20670;-85
2022/05/02 13:29:03;;;;;;;8.75;5.30;;;20.20;92.70;;;;;;5035685;28;20048;-85
2022/05/02 13:31:44;;;;;;;6.65;4.72;;;20.00;90.80;;;;;;5050938;28;20108;-84
2022/05/02 13:34:27;;;;;;;9.63;5.40;;;20.50;91.40;;;;;;5050266;28;20045;-85
2022/05/02 13:37:03;;;;;;;7.25;4.93;;;20.10;91.10;;;;;;5035117;28;20041;-85
2022/05/02 13:39:55;;;;;;;6.20;4.70;;;20.00;90.30;;;;;;5035115;28;20392;-86
2022/05/02 13:42:45;;;;;;;6.10;4.47;;;20.70;91.90;;;;;;5044485;28;20030;-85
2022/05/02 13:45:20;;;;;;;9.63;5.38;;;20.40;90.50;;;;;;5031796;28;20090;-84
2022/05/02 13:47:48;;;;;;;6.40;4.65;;;20.50;90.60;;;;;;5048982;28;20049;-85
2022/05/02 13:50:18;;;;;;;7.32;4.10;;;20.80;91.40;;;;;;5034262;28;20041;-84